sensor_id;sensor_type;location;lat;lon;timestamp;P1;durP1;ratioP1;P2;durP2;ratioP2
75739;SDS011;64357;51.344;6.550;2023-06-22T00:02:24;9.40;;;4.45;;
75739;SDS011;64357;51.344;6.550;2023-06-22T00:04:49;12.93;;;4.20;;
75739;SDS011;64357;51.344;6.550;2023-06-22T00:07:16;10.55;;;5.20;;
75739;SDS011;64357;51.344;6.550;2023-06-22T00:09:41;10.50;;;4.70;;
75739;SDS011;64357;51.344;6.550;2023-06-22T00:12:08;10.23;;;4.53;;
75739;SDS011;64357;51.344;6.550;2023-06-22T00:14:34;8.43;;;4.07;;
75739;SDS011;64357;51.344;6.550;2023-06-22T00:17:01;9.07;;;5.20;;
75739;SDS011;64357;51.344;6.550;2023-06-22T00:19:31;9.20;;;4.75;;
75739;SDS011;64357;51.344;6.550;2023-06-22T00:22:14;9.85;;;4.68;;
75739;SDS011;64357;51.344;6.550;2023-06-22T00:25:15;9.18;;;4.47;;
75739;SDS011;64357;51.344;6.550;2023-06-22T00:28:42;9.95;;;4.38;;
75739;SDS011;64357;51.344;6.550;2023-06-22T00:31:13;9.75;;;4.55;;
75739;SDS011;64357;51.344;6.550;2023-06-22T00:33:42;12.25;;;5.22;;
75739;SDS011;64357;51.344;6.550;2023-06-22T00:36:16;9.15;;;4.97;;
75739;SDS011;64357;51.344;6.550;2023-06-22T00:38:56;10.82;;;4.88;;
75739;SDS011;64357;51.344;6.550;2023-06-22T00:41:27;12.73;;;5.70;;
75739;SDS011;64357;51.344;6.550;2023-06-22T00:44:16;12.23;;;5.38;;
75739;SDS011;64357;51.344;6.550;2023-06-22T00:46:47;13.40;;;5.45;;
75739;SDS011;64357;51.344;6.550;2023-06-22T00:49:31;12.10;;;5.70;;
75739;SDS011;64357;51.344;6.550;2023-06-22T00:52:21;10.45;;;5.28;;
75739;SDS011;64357;51.344;6.550;2023-06-22T00:54:59;13.40;;;5.28;;
75739;SDS011;64357;51.344;6.550;2023-06-22T00:57:32;12.10;;;5.60;;
75739;SDS011;64357;51.344;6.550;2023-06-22T01:00:08;11.15;;;5.38;;
75739;SDS011;64357;51.344;6.550;2023-06-22T01:02:57;12.32;;;6.15;;
75739;SDS011;64357;51.344;6.550;2023-06-22T01:05:30;11.85;;;5.90;;
75739;SDS011;64357;51.344;6.550;2023-06-22T01:11:35;12.90;;;6.40;;
75739;SDS011;64357;51.344;6.550;2023-06-22T01:16:48;12.20;;;6.13;;
75739;SDS011;64357;51.344;6.550;2023-06-22T01:22:07;12.82;;;6.40;;
75739;SDS011;64357;51.344;6.550;2023-06-22T01:25:00;12.05;;;6.10;;
75739;SDS011;64357;51.344;6.550;2023-06-22T01:27:53;13.68;;;6.30;;
75739;SDS011;64357;51.344;6.550;2023-06-22T01:30:29;13.05;;;6.00;;
75739;SDS011;64357;51.344;6.550;2023-06-22T01:33:33;12.60;;;6.70;;
75739;SDS011;64357;51.344;6.550;2023-06-22T01:36:02;12.85;;;6.22;;
75739;SDS011;64357;51.344;6.550;2023-06-22T01:38:29;16.80;;;6.82;;
75739;SDS011;64357;51.344;6.550;2023-06-22T01:40:57;13.25;;;6.68;;
75739;SDS011;64357;51.344;6.550;2023-06-22T01:43:24;13.90;;;6.78;;
75739;SDS011;64357;51.344;6.550;2023-06-22T01:45:51;15.57;;;7.38;;
75739;SDS011;64357;51.344;6.550;2023-06-22T01:48:19;14.43;;;6.72;;
75739;SDS011;64357;51.344;6.550;2023-06-22T01:50:45;13.45;;;6.57;;
75739;SDS011;64357;51.344;6.550;2023-06-22T01:53:11;13.18;;;6.07;;
75739;SDS011;64357;51.344;6.550;2023-06-22T01:55:36;15.15;;;7.13;;
75739;SDS011;64357;51.344;6.550;2023-06-22T01:58:02;13.13;;;6.25;;
75739;SDS011;64357;51.344;6.550;2023-06-22T02:00:28;13.60;;;7.25;;
75739;SDS011;64357;51.344;6.550;2023-06-22T02:03:02;12.57;;;6.55;;
75739;SDS011;64357;51.344;6.550;2023-06-22T02:05:36;13.77;;;6.35;;
75739;SDS011;64357;51.344;6.550;2023-06-22T02:10:59;12.63;;;6.70;;
75739;SDS011;64357;51.344;6.550;2023-06-22T02:13:31;12.13;;;7.25;;
75739;SDS011;64357;51.344;6.550;2023-06-22T02:15:57;12.45;;;6.78;;
75739;SDS011;64357;51.344;6.550;2023-06-22T02:18:25;9.98;;;5.35;;
75739;SDS011;64357;51.344;6.550;2023-06-22T02:20:53;12.10;;;6.50;;
75739;SDS011;64357;51.344;6.550;2023-06-22T02:23:19;13.10;;;6.35;;
75739;SDS011;64357;51.344;6.550;2023-06-22T02:25:46;13.52;;;6.40;;
75739;SDS011;64357;51.344;6.550;2023-06-22T02:28:11;12.50;;;6.38;;
75739;SDS011;64357;51.344;6.550;2023-06-22T02:30:37;13.52;;;6.13;;
75739;SDS011;64357;51.344;6.550;2023-06-22T02:33:03;16.33;;;6.43;;
75739;SDS011;64357;51.344;6.550;2023-06-22T02:35:28;11.30;;;5.87;;
75739;SDS011;64357;51.344;6.550;2023-06-22T02:38:03;11.52;;;6.13;;
75739;SDS011;64357;51.344;6.550;2023-06-22T02:40:29;13.25;;;5.97;;
75739;SDS011;64357;51.344;6.550;2023-06-22T02:42:58;12.80;;;6.57;;
75739;SDS011;64357;51.344;6.550;2023-06-22T02:45:26;15.05;;;7.38;;
75739;SDS011;64357;51.344;6.550;2023-06-22T02:47:52;12.80;;;6.50;;
75739;SDS011;64357;51.344;6.550;2023-06-22T02:50:19;14.20;;;6.65;;
75739;SDS011;64357;51.344;6.550;2023-06-22T02:52:45;13.43;;;7.37;;
75739;SDS011;64357;51.344;6.550;2023-06-22T02:55:11;13.48;;;7.35;;
75739;SDS011;64357;51.344;6.550;2023-06-22T02:57:36;12.70;;;6.80;;
75739;SDS011;64357;51.344;6.550;2023-06-22T03:00:03;14.35;;;7.65;;
75739;SDS011;64357;51.344;6.550;2023-06-22T03:02:41;14.70;;;7.85;;
75739;SDS011;64357;51.344;6.550;2023-06-22T03:05:09;14.30;;;7.00;;
75739;SDS011;64357;51.344;6.550;2023-06-22T03:07:38;15.60;;;7.47;;
75739;SDS011;64357;51.344;6.550;2023-06-22T03:10:04;13.10;;;7.28;;
75739;SDS011;64357;51.344;6.550;2023-06-22T03:12:29;16.17;;;7.65;;
75739;SDS011;64357;51.344;6.550;2023-06-22T03:14:55;13.83;;;7.87;;
75739;SDS011;64357;51.344;6.550;2023-06-22T03:17:20;15.52;;;7.47;;
75739;SDS011;64357;51.344;6.550;2023-06-22T03:19:45;13.67;;;7.20;;
75739;SDS011;64357;51.344;6.550;2023-06-22T03:22:13;15.23;;;8.00;;
75739;SDS011;64357;51.344;6.550;2023-06-22T03:24:40;14.68;;;8.50;;
75739;SDS011;64357;51.344;6.550;2023-06-22T03:27:08;16.10;;;8.02;;
75739;SDS011;64357;51.344;6.550;2023-06-22T03:29:35;14.88;;;8.52;;
75739;SDS011;64357;51.344;6.550;2023-06-22T03:32:01;15.70;;;8.00;;
75739;SDS011;64357;51.344;6.550;2023-06-22T03:34:33;19.92;;;9.68;;
75739;SDS011;64357;51.344;6.550;2023-06-22T03:36:59;17.95;;;8.43;;
75739;SDS011;64357;51.344;6.550;2023-06-22T03:39:25;15.52;;;7.88;;
75739;SDS011;64357;51.344;6.550;2023-06-22T03:41:52;16.33;;;8.23;;
75739;SDS011;64357;51.344;6.550;2023-06-22T03:44:18;20.23;;;8.13;;
75739;SDS011;64357;51.344;6.550;2023-06-22T03:46:43;14.70;;;8.40;;
75739;SDS011;64357;51.344;6.550;2023-06-22T03:49:08;15.97;;;8.90;;
75739;SDS011;64357;51.344;6.550;2023-06-22T03:51:36;14.73;;;8.67;;
75739;SDS011;64357;51.344;6.550;2023-06-22T03:54:01;14.73;;;8.35;;
75739;SDS011;64357;51.344;6.550;2023-06-22T03:56:29;16.00;;;7.93;;
75739;SDS011;64357;51.344;6.550;2023-06-22T03:58:58;19.55;;;9.23;;
75739;SDS011;64357;51.344;6.550;2023-06-22T04:01:23;13.27;;;7.93;;
75739;SDS011;64357;51.344;6.550;2023-06-22T04:03:51;13.20;;;8.33;;
75739;SDS011;64357;51.344;6.550;2023-06-22T04:06:16;16.73;;;8.68;;
75739;SDS011;64357;51.344;6.550;2023-06-22T04:08:42;14.48;;;8.77;;
75739;SDS011;64357;51.344;6.550;2023-06-22T04:11:07;14.50;;;7.97;;
75739;SDS011;64357;51.344;6.550;2023-06-22T04:13:35;15.73;;;9.33;;
75739;SDS011;64357;51.344;6.550;2023-06-22T04:16:00;15.65;;;8.40;;
75739;SDS011;64357;51.344;6.550;2023-06-22T04:18:31;16.55;;;9.80;;
75739;SDS011;64357;51.344;6.550;2023-06-22T04:20:56;13.70;;;8.27;;
75739;SDS011;64357;51.344;6.550;2023-06-22T04:23:24;14.68;;;8.63;;
75739;SDS011;64357;51.344;6.550;2023-06-22T04:25:53;16.13;;;8.35;;
75739;SDS011;64357;51.344;6.550;2023-06-22T04:28:18;15.13;;;8.88;;
75739;SDS011;64357;51.344;6.550;2023-06-22T04:30:46;15.93;;;8.50;;
75739;SDS011;64357;51.344;6.550;2023-06-22T04:33:14;15.15;;;8.30;;
75739;SDS011;64357;51.344;6.550;2023-06-22T04:35:40;16.25;;;8.38;;
75739;SDS011;64357;51.344;6.550;2023-06-22T04:38:06;15.30;;;9.18;;
75739;SDS011;64357;51.344;6.550;2023-06-22T04:40:36;14.95;;;9.40;;
75739;SDS011;64357;51.344;6.550;2023-06-22T04:43:02;15.10;;;9.15;;
75739;SDS011;64357;51.344;6.550;2023-06-22T04:45:28;15.90;;;9.35;;
75739;SDS011;64357;51.344;6.550;2023-06-22T04:47:56;16.83;;;8.32;;
75739;SDS011;64357;51.344;6.550;2023-06-22T04:50:22;15.43;;;8.75;;
75739;SDS011;64357;51.344;6.550;2023-06-22T04:52:48;17.77;;;9.32;;
75739;SDS011;64357;51.344;6.550;2023-06-22T04:55:14;15.40;;;10.02;;
75739;SDS011;64357;51.344;6.550;2023-06-22T04:57:48;16.27;;;9.38;;
75739;SDS011;64357;51.344;6.550;2023-06-22T05:00:14;13.32;;;8.27;;
75739;SDS011;64357;51.344;6.550;2023-06-22T05:02:44;15.55;;;8.98;;
75739;SDS011;64357;51.344;6.550;2023-06-22T05:05:11;16.77;;;8.30;;
75739;SDS011;64357;51.344;6.550;2023-06-22T05:07:45;16.08;;;8.93;;
75739;SDS011;64357;51.344;6.550;2023-06-22T05:10:13;16.02;;;9.35;;
75739;SDS011;64357;51.344;6.550;2023-06-22T05:12:39;14.45;;;8.60;;
75739;SDS011;64357;51.344;6.550;2023-06-22T05:15:06;15.10;;;9.27;;
75739;SDS011;64357;51.344;6.550;2023-06-22T05:17:35;13.63;;;7.97;;
75739;SDS011;64357;51.344;6.550;2023-06-22T05:20:10;16.33;;;9.15;;
75739;SDS011;64357;51.344;6.550;2023-06-22T05:22:38;16.55;;;8.88;;
75739;SDS011;64357;51.344;6.550;2023-06-22T05:25:08;15.65;;;8.55;;
75739;SDS011;64357;51.344;6.550;2023-06-22T05:27:37;16.00;;;9.27;;
75739;SDS011;64357;51.344;6.550;2023-06-22T05:30:06;15.35;;;9.60;;
75739;SDS011;64357;51.344;6.550;2023-06-22T05:32:37;14.98;;;8.65;;
75739;SDS011;64357;51.344;6.550;2023-06-22T05:35:05;16.38;;;9.52;;
75739;SDS011;64357;51.344;6.550;2023-06-22T05:40:01;16.30;;;9.03;;
75739;SDS011;64357;51.344;6.550;2023-06-22T05:42:26;17.65;;;9.30;;
75739;SDS011;64357;51.344;6.550;2023-06-22T05:44:53;19.00;;;10.75;;
75739;SDS011;64357;51.344;6.550;2023-06-22T05:47:19;14.75;;;9.05;;
75739;SDS011;64357;51.344;6.550;2023-06-22T05:49:44;15.75;;;9.20;;
75739;SDS011;64357;51.344;6.550;2023-06-22T05:52:11;17.65;;;9.50;;
75739;SDS011;64357;51.344;6.550;2023-06-22T05:54:36;23.02;;;9.35;;
75739;SDS011;64357;51.344;6.550;2023-06-22T05:57:04;14.73;;;9.13;;
75739;SDS011;64357;51.344;6.550;2023-06-22T05:59:29;17.73;;;9.80;;
75739;SDS011;64357;51.344;6.550;2023-06-22T06:02:00;16.23;;;9.40;;
75739;SDS011;64357;51.344;6.550;2023-06-22T06:04:28;17.77;;;9.93;;
75739;SDS011;64357;51.344;6.550;2023-06-22T06:06:53;17.10;;;9.20;;
75739;SDS011;64357;51.344;6.550;2023-06-22T06:09:19;15.95;;;8.93;;
75739;SDS011;64357;51.344;6.550;2023-06-22T06:11:47;17.63;;;9.32;;
75739;SDS011;64357;51.344;6.550;2023-06-22T06:14:12;17.70;;;8.93;;
75739;SDS011;64357;51.344;6.550;2023-06-22T06:16:37;16.47;;;9.13;;
75739;SDS011;64357;51.344;6.550;2023-06-22T06:19:03;16.67;;;8.98;;
75739;SDS011;64357;51.344;6.550;2023-06-22T06:21:28;17.13;;;8.43;;
75739;SDS011;64357;51.344;6.550;2023-06-22T06:23:53;17.10;;;8.60;;
75739;SDS011;64357;51.344;6.550;2023-06-22T06:26:21;15.40;;;9.27;;
75739;SDS011;64357;51.344;6.550;2023-06-22T06:28:53;19.02;;;9.13;;
75739;SDS011;64357;51.344;6.550;2023-06-22T06:31:28;15.38;;;9.10;;
75739;SDS011;64357;51.344;6.550;2023-06-22T06:33:53;16.52;;;8.75;;
75739;SDS011;64357;51.344;6.550;2023-06-22T06:36:19;16.55;;;8.93;;
75739;SDS011;64357;51.344;6.550;2023-06-22T06:38:45;17.30;;;8.95;;
75739;SDS011;64357;51.344;6.550;2023-06-22T06:41:13;15.20;;;8.10;;
75739;SDS011;64357;51.344;6.550;2023-06-22T06:43:40;16.60;;;8.68;;
75739;SDS011;64357;51.344;6.550;2023-06-22T06:46:08;14.85;;;8.20;;
75739;SDS011;64357;51.344;6.550;2023-06-22T06:48:34;13.63;;;8.50;;
75739;SDS011;64357;51.344;6.550;2023-06-22T06:50:59;18.65;;;8.90;;
75739;SDS011;64357;51.344;6.550;2023-06-22T06:53:27;17.60;;;8.95;;
75739;SDS011;64357;51.344;6.550;2023-06-22T06:55:56;15.57;;;8.75;;
75739;SDS011;64357;51.344;6.550;2023-06-22T06:58:22;15.80;;;8.82;;
75739;SDS011;64357;51.344;6.550;2023-06-22T07:00:48;16.15;;;8.10;;
75739;SDS011;64357;51.344;6.550;2023-06-22T07:03:15;16.08;;;8.45;;
75739;SDS011;64357;51.344;6.550;2023-06-22T07:05:44;18.15;;;9.07;;
75739;SDS011;64357;51.344;6.550;2023-06-22T07:08:09;15.27;;;8.88;;
75739;SDS011;64357;51.344;6.550;2023-06-22T07:10:39;15.98;;;8.73;;
75739;SDS011;64357;51.344;6.550;2023-06-22T07:15:33;13.50;;;8.00;;
75739;SDS011;64357;51.344;6.550;2023-06-22T07:18:00;17.92;;;8.98;;
75739;SDS011;64357;51.344;6.550;2023-06-22T07:20:28;15.82;;;8.38;;
75739;SDS011;64357;51.344;6.550;2023-06-22T07:22:53;15.00;;;8.57;;
75739;SDS011;64357;51.344;6.550;2023-06-22T07:25:21;15.18;;;8.52;;
75739;SDS011;64357;51.344;6.550;2023-06-22T07:27:56;16.42;;;8.45;;
75739;SDS011;64357;51.344;6.550;2023-06-22T07:30:30;15.18;;;8.75;;
75739;SDS011;64357;51.344;6.550;2023-06-22T07:32:57;17.42;;;8.18;;
75739;SDS011;64357;51.344;6.550;2023-06-22T07:35:23;16.02;;;8.00;;
75739;SDS011;64357;51.344;6.550;2023-06-22T07:37:49;14.68;;;7.88;;
75739;SDS011;64357;51.344;6.550;2023-06-22T07:40:17;15.60;;;8.18;;
75739;SDS011;64357;51.344;6.550;2023-06-22T07:42:44;15.10;;;7.68;;
75739;SDS011;64357;51.344;6.550;2023-06-22T07:45:17;14.80;;;6.80;;
75739;SDS011;64357;51.344;6.550;2023-06-22T07:47:45;13.15;;;7.00;;
75739;SDS011;64357;51.344;6.550;2023-06-22T07:50:11;14.27;;;7.85;;
75739;SDS011;64357;51.344;6.550;2023-06-22T07:52:36;13.48;;;7.13;;
75739;SDS011;64357;51.344;6.550;2023-06-22T07:55:05;15.05;;;7.65;;
75739;SDS011;64357;51.344;6.550;2023-06-22T07:57:30;15.95;;;8.52;;
75739;SDS011;64357;51.344;6.550;2023-06-22T08:00:02;16.40;;;8.18;;
75739;SDS011;64357;51.344;6.550;2023-06-22T08:02:36;16.13;;;8.55;;
75739;SDS011;64357;51.344;6.550;2023-06-22T08:05:01;14.98;;;8.82;;
75739;SDS011;64357;51.344;6.550;2023-06-22T08:07:26;17.73;;;9.45;;
75739;SDS011;64357;51.344;6.550;2023-06-22T08:09:54;15.70;;;8.50;;
75739;SDS011;64357;51.344;6.550;2023-06-22T08:12:20;18.55;;;9.30;;
75739;SDS011;64357;51.344;6.550;2023-06-22T08:14:46;19.88;;;10.40;;
75739;SDS011;64357;51.344;6.550;2023-06-22T08:17:12;14.70;;;9.32;;
75739;SDS011;64357;51.344;6.550;2023-06-22T08:19:40;19.85;;;9.85;;
75739;SDS011;64357;51.344;6.550;2023-06-22T08:22:10;16.15;;;8.95;;
75739;SDS011;64357;51.344;6.550;2023-06-22T08:24:38;17.85;;;8.95;;
75739;SDS011;64357;51.344;6.550;2023-06-22T08:27:06;17.42;;;9.38;;
75739;SDS011;64357;51.344;6.550;2023-06-22T08:29:36;16.48;;;9.77;;
75739;SDS011;64357;51.344;6.550;2023-06-22T08:32:05;15.27;;;9.77;;
75739;SDS011;64357;51.344;6.550;2023-06-22T08:34:31;16.20;;;8.90;;
75739;SDS011;64357;51.344;6.550;2023-06-22T08:36:57;15.05;;;9.23;;
75739;SDS011;64357;51.344;6.550;2023-06-22T08:39:25;15.60;;;9.13;;
75739;SDS011;64357;51.344;6.550;2023-06-22T08:41:51;18.63;;;9.50;;
75739;SDS011;64357;51.344;6.550;2023-06-22T08:44:19;16.90;;;10.68;;
75739;SDS011;64357;51.344;6.550;2023-06-22T08:46:50;16.52;;;8.63;;
75739;SDS011;64357;51.344;6.550;2023-06-22T08:49:15;12.87;;;8.73;;
75739;SDS011;64357;51.344;6.550;2023-06-22T08:51:41;14.88;;;8.88;;
75739;SDS011;64357;51.344;6.550;2023-06-22T08:54:06;15.50;;;8.77;;
75739;SDS011;64357;51.344;6.550;2023-06-22T08:56:31;16.00;;;9.25;;
75739;SDS011;64357;51.344;6.550;2023-06-22T08:58:57;17.50;;;8.68;;
75739;SDS011;64357;51.344;6.550;2023-06-22T09:01:25;15.90;;;9.27;;
75739;SDS011;64357;51.344;6.550;2023-06-22T09:03:52;18.00;;;9.82;;
75739;SDS011;64357;51.344;6.550;2023-06-22T09:06:22;14.27;;;9.07;;
75739;SDS011;64357;51.344;6.550;2023-06-22T09:08:49;13.27;;;7.85;;
75739;SDS011;64357;51.344;6.550;2023-06-22T09:11:15;15.70;;;9.68;;
75739;SDS011;64357;51.344;6.550;2023-06-22T09:16:35;16.15;;;9.73;;
75739;SDS011;64357;51.344;6.550;2023-06-22T09:19:01;15.48;;;9.05;;
75739;SDS011;64357;51.344;6.550;2023-06-22T09:21:27;15.10;;;9.75;;
75739;SDS011;64357;51.344;6.550;2023-06-22T09:23:52;15.13;;;9.57;;
75739;SDS011;64357;51.344;6.550;2023-06-22T09:26:21;14.93;;;10.15;;
75739;SDS011;64357;51.344;6.550;2023-06-22T09:28:51;15.60;;;9.95;;
75739;SDS011;64357;51.344;6.550;2023-06-22T09:31:25;15.80;;;9.65;;
75739;SDS011;64357;51.344;6.550;2023-06-22T09:33:54;15.48;;;10.02;;
75739;SDS011;64357;51.344;6.550;2023-06-22T09:36:23;14.95;;;9.25;;
75739;SDS011;64357;51.344;6.550;2023-06-22T09:38:48;16.85;;;9.48;;
75739;SDS011;64357;51.344;6.550;2023-06-22T09:41:20;15.35;;;9.32;;
75739;SDS011;64357;51.344;6.550;2023-06-22T09:43:46;15.63;;;9.45;;
75739;SDS011;64357;51.344;6.550;2023-06-22T09:46:14;18.17;;;9.75;;
75739;SDS011;64357;51.344;6.550;2023-06-22T09:48:45;16.13;;;9.48;;
75739;SDS011;64357;51.344;6.550;2023-06-22T09:51:13;14.98;;;9.23;;
75739;SDS011;64357;51.344;6.550;2023-06-22T09:53:38;16.90;;;10.77;;
75739;SDS011;64357;51.344;6.550;2023-06-22T09:56:06;14.82;;;10.57;;
75739;SDS011;64357;51.344;6.550;2023-06-22T09:58:41;16.75;;;10.32;;
75739;SDS011;64357;51.344;6.550;2023-06-22T10:01:08;16.17;;;10.27;;
75739;SDS011;64357;51.344;6.550;2023-06-22T10:03:38;15.55;;;10.05;;
75739;SDS011;64357;51.344;6.550;2023-06-22T10:06:08;13.68;;;10.13;;
75739;SDS011;64357;51.344;6.550;2023-06-22T10:08:36;15.95;;;9.90;;
75739;SDS011;64357;51.344;6.550;2023-06-22T10:11:03;20.50;;;11.15;;
75739;SDS011;64357;51.344;6.550;2023-06-22T10:13:29;16.17;;;9.85;;
75739;SDS011;64357;51.344;6.550;2023-06-22T10:15:54;17.23;;;10.73;;
75739;SDS011;64357;51.344;6.550;2023-06-22T10:18:20;18.17;;;11.25;;
75739;SDS011;64357;51.344;6.550;2023-06-22T10:20:47;19.65;;;9.85;;
75739;SDS011;64357;51.344;6.550;2023-06-22T10:23:14;19.55;;;10.50;;
75739;SDS011;64357;51.344;6.550;2023-06-22T10:25:41;19.58;;;10.65;;
75739;SDS011;64357;51.344;6.550;2023-06-22T10:28:09;21.60;;;9.50;;
75739;SDS011;64357;51.344;6.550;2023-06-22T10:30:34;16.67;;;9.82;;
75739;SDS011;64357;51.344;6.550;2023-06-22T10:33:02;15.48;;;9.95;;
75739;SDS011;64357;51.344;6.550;2023-06-22T10:35:33;17.08;;;10.10;;
75739;SDS011;64357;51.344;6.550;2023-06-22T10:38:05;16.60;;;10.05;;
75739;SDS011;64357;51.344;6.550;2023-06-22T10:40:33;17.40;;;10.40;;
75739;SDS011;64357;51.344;6.550;2023-06-22T10:43:01;18.05;;;10.60;;
75739;SDS011;64357;51.344;6.550;2023-06-22T10:45:27;16.50;;;9.70;;
75739;SDS011;64357;51.344;6.550;2023-06-22T10:47:55;16.40;;;10.30;;
75739;SDS011;64357;51.344;6.550;2023-06-22T10:52:49;16.83;;;10.30;;
75739;SDS011;64357;51.344;6.550;2023-06-22T10:55:14;27.58;;;10.93;;
75739;SDS011;64357;51.344;6.550;2023-06-22T10:57:51;19.65;;;11.05;;
75739;SDS011;64357;51.344;6.550;2023-06-22T11:00:19;18.35;;;12.77;;
75739;SDS011;64357;51.344;6.550;2023-06-22T11:02:48;18.65;;;12.32;;
75739;SDS011;64357;51.344;6.550;2023-06-22T11:05:13;20.23;;;12.57;;
75739;SDS011;64357;51.344;6.550;2023-06-22T11:07:42;16.25;;;10.82;;
75739;SDS011;64357;51.344;6.550;2023-06-22T11:10:08;19.73;;;12.07;;
75739;SDS011;64357;51.344;6.550;2023-06-22T11:12:34;17.33;;;11.40;;
75739;SDS011;64357;51.344;6.550;2023-06-22T11:15:01;20.30;;;12.43;;
75739;SDS011;64357;51.344;6.550;2023-06-22T11:17:30;18.80;;;12.07;;
75739;SDS011;64357;51.344;6.550;2023-06-22T11:19:58;19.67;;;11.40;;
75739;SDS011;64357;51.344;6.550;2023-06-22T11:22:25;21.30;;;11.98;;
75739;SDS011;64357;51.344;6.550;2023-06-22T11:24:50;21.13;;;12.43;;
75739;SDS011;64357;51.344;6.550;2023-06-22T11:27:17;23.33;;;13.45;;
75739;SDS011;64357;51.344;6.550;2023-06-22T11:29:43;25.35;;;13.30;;
75739;SDS011;64357;51.344;6.550;2023-06-22T11:32:13;23.13;;;13.57;;
75739;SDS011;64357;51.344;6.550;2023-06-22T11:34:39;25.00;;;13.45;;
75739;SDS011;64357;51.344;6.550;2023-06-22T11:37:07;23.67;;;13.43;;
75739;SDS011;64357;51.344;6.550;2023-06-22T11:39:35;28.73;;;15.05;;
75739;SDS011;64357;51.344;6.550;2023-06-22T11:42:02;26.63;;;15.70;;
75739;SDS011;64357;51.344;6.550;2023-06-22T11:44:30;28.48;;;16.13;;
75739;SDS011;64357;51.344;6.550;2023-06-22T11:46:57;24.95;;;16.42;;
75739;SDS011;64357;51.344;6.550;2023-06-22T11:49:26;27.90;;;17.55;;
75739;SDS011;64357;51.344;6.550;2023-06-22T11:51:54;24.83;;;15.15;;
75739;SDS011;64357;51.344;6.550;2023-06-22T11:54:19;27.77;;;16.55;;
75739;SDS011;64357;51.344;6.550;2023-06-22T11:56:44;26.07;;;16.67;;
75739;SDS011;64357;51.344;6.550;2023-06-22T11:59:10;25.73;;;17.47;;
75739;SDS011;64357;51.344;6.550;2023-06-22T12:01:36;27.20;;;17.38;;
75739;SDS011;64357;51.344;6.550;2023-06-22T12:04:01;27.33;;;17.17;;
75739;SDS011;64357;51.344;6.550;2023-06-22T12:06:31;30.67;;;17.67;;
75739;SDS011;64357;51.344;6.550;2023-06-22T12:09:00;27.92;;;17.90;;
75739;SDS011;64357;51.344;6.550;2023-06-22T12:11:29;28.88;;;17.83;;
75739;SDS011;64357;51.344;6.550;2023-06-22T12:13:55;27.65;;;17.10;;
75739;SDS011;64357;51.344;6.550;2023-06-22T12:16:23;27.20;;;18.02;;
75739;SDS011;64357;51.344;6.550;2023-06-22T12:18:51;28.50;;;17.23;;
75739;SDS011;64357;51.344;6.550;2023-06-22T12:21:18;27.38;;;16.70;;
75739;SDS011;64357;51.344;6.550;2023-06-22T12:23:44;28.63;;;18.58;;
75739;SDS011;64357;51.344;6.550;2023-06-22T12:26:17;26.75;;;16.13;;
75739;SDS011;64357;51.344;6.550;2023-06-22T12:28:43;25.80;;;16.77;;
75739;SDS011;64357;51.344;6.550;2023-06-22T12:31:08;29.00;;;17.65;;
75739;SDS011;64357;51.344;6.550;2023-06-22T12:33:33;25.38;;;16.08;;
75739;SDS011;64357;51.344;6.550;2023-06-22T12:35:59;25.93;;;17.63;;
75739;SDS011;64357;51.344;6.550;2023-06-22T12:38:25;22.63;;;15.43;;
75739;SDS011;64357;51.344;6.550;2023-06-22T12:40:51;25.00;;;16.52;;
75739;SDS011;64357;51.344;6.550;2023-06-22T12:43:19;25.02;;;16.10;;
75739;SDS011;64357;51.344;6.550;2023-06-22T12:45:45;24.52;;;16.23;;
75739;SDS011;64357;51.344;6.550;2023-06-22T12:48:10;23.90;;;16.33;;
75739;SDS011;64357;51.344;6.550;2023-06-22T12:50:37;23.77;;;15.97;;
75739;SDS011;64357;51.344;6.550;2023-06-22T12:53:02;25.40;;;16.40;;
75739;SDS011;64357;51.344;6.550;2023-06-22T12:55:30;23.73;;;15.35;;
75739;SDS011;64357;51.344;6.550;2023-06-22T12:57:56;24.95;;;16.00;;
75739;SDS011;64357;51.344;6.550;2023-06-22T13:00:24;24.90;;;15.75;;
75739;SDS011;64357;51.344;6.550;2023-06-22T13:02:49;22.20;;;15.55;;
75739;SDS011;64357;51.344;6.550;2023-06-22T13:05:15;24.47;;;15.77;;
75739;SDS011;64357;51.344;6.550;2023-06-22T13:07:41;24.75;;;15.30;;
75739;SDS011;64357;51.344;6.550;2023-06-22T13:10:07;25.52;;;16.98;;
75739;SDS011;64357;51.344;6.550;2023-06-22T13:12:33;23.67;;;15.90;;
75739;SDS011;64357;51.344;6.550;2023-06-22T13:15:06;25.20;;;16.23;;
75739;SDS011;64357;51.344;6.550;2023-06-22T13:17:32;28.20;;;17.05;;
75739;SDS011;64357;51.344;6.550;2023-06-22T13:19:58;24.23;;;16.83;;
75739;SDS011;64357;51.344;6.550;2023-06-22T13:25:09;27.67;;;16.90;;
75739;SDS011;64357;51.344;6.550;2023-06-22T13:27:41;27.63;;;17.55;;
75739;SDS011;64357;51.344;6.550;2023-06-22T13:33:15;24.52;;;16.92;;
75739;SDS011;64357;51.344;6.550;2023-06-22T13:35:44;23.90;;;16.15;;
75739;SDS011;64357;51.344;6.550;2023-06-22T13:38:10;22.08;;;13.75;;
75739;SDS011;64357;51.344;6.550;2023-06-22T13:40:36;24.00;;;14.98;;
75739;SDS011;64357;51.344;6.550;2023-06-22T13:43:06;24.67;;;15.20;;
75739;SDS011;64357;51.344;6.550;2023-06-22T13:45:35;25.17;;;15.48;;
75739;SDS011;64357;51.344;6.550;2023-06-22T13:48:02;24.65;;;13.82;;
75739;SDS011;64357;51.344;6.550;2023-06-22T13:50:27;22.23;;;14.65;;
75739;SDS011;64357;51.344;6.550;2023-06-22T13:52:55;23.40;;;15.40;;
75739;SDS011;64357;51.344;6.550;2023-06-22T13:55:22;22.85;;;14.73;;
75739;SDS011;64357;51.344;6.550;2023-06-22T13:57:49;22.90;;;16.10;;
75739;SDS011;64357;51.344;6.550;2023-06-22T14:00:34;25.48;;;14.80;;
75739;SDS011;64357;51.344;6.550;2023-06-22T14:03:00;21.27;;;13.57;;
75739;SDS011;64357;51.344;6.550;2023-06-22T14:05:27;22.25;;;15.02;;
75739;SDS011;64357;51.344;6.550;2023-06-22T14:07:55;23.02;;;15.38;;
75739;SDS011;64357;51.344;6.550;2023-06-22T14:10:24;22.60;;;14.00;;
75739;SDS011;64357;51.344;6.550;2023-06-22T14:12:56;20.65;;;13.95;;
75739;SDS011;64357;51.344;6.550;2023-06-22T14:15:21;22.40;;;15.70;;
75739;SDS011;64357;51.344;6.550;2023-06-22T14:17:46;24.08;;;15.80;;
75739;SDS011;64357;51.344;6.550;2023-06-22T14:20:12;25.35;;;15.57;;
75739;SDS011;64357;51.344;6.550;2023-06-22T14:22:45;26.77;;;17.10;;
75739;SDS011;64357;51.344;6.550;2023-06-22T14:27:39;27.13;;;17.10;;
75739;SDS011;64357;51.344;6.550;2023-06-22T14:30:04;24.77;;;15.98;;
75739;SDS011;64357;51.344;6.550;2023-06-22T14:32:33;24.88;;;15.65;;
75739;SDS011;64357;51.344;6.550;2023-06-22T14:34:58;25.98;;;15.52;;
75739;SDS011;64357;51.344;6.550;2023-06-22T14:37:26;23.90;;;15.40;;
75739;SDS011;64357;51.344;6.550;2023-06-22T14:40:04;25.92;;;15.88;;
75739;SDS011;64357;51.344;6.550;2023-06-22T14:42:29;22.52;;;14.80;;
75739;SDS011;64357;51.344;6.550;2023-06-22T14:44:58;25.25;;;15.38;;
75739;SDS011;64357;51.344;6.550;2023-06-22T14:47:29;25.08;;;15.43;;
75739;SDS011;64357;51.344;6.550;2023-06-22T14:49:58;25.33;;;16.95;;
75739;SDS011;64357;51.344;6.550;2023-06-22T14:52:49;72.88;;;51.22;;
75739;SDS011;64357;51.344;6.550;2023-06-22T14:55:17;24.55;;;15.88;;
75739;SDS011;64357;51.344;6.550;2023-06-22T14:57:42;28.83;;;21.88;;
75739;SDS011;64357;51.344;6.550;2023-06-22T15:00:12;19.90;;;12.82;;
75739;SDS011;64357;51.344;6.550;2023-06-22T15:02:38;25.02;;;15.98;;
75739;SDS011;64357;51.344;6.550;2023-06-22T15:05:08;26.20;;;15.93;;
75739;SDS011;64357;51.344;6.550;2023-06-22T15:07:33;26.80;;;17.50;;
75739;SDS011;64357;51.344;6.550;2023-06-22T15:10:00;27.88;;;16.77;;